createdAt,value
2023-03-23T00:00:34.048Z,94848.00
2023-03-23T00:56:25.066Z,94854.00
2023-03-23T01:00:26.154Z,94848.00
2023-03-23T01:04:26.330Z,94852.00
2023-03-23T01:08:26.550Z,94854.00
2023-03-23T01:12:26.538Z,94856.00
2023-03-23T01:16:26.469Z,94850.00
2023-03-23T01:20:26.455Z,94842.00
2023-03-23T01:24:26.395Z,94841.00
2023-03-23T01:28:26.387Z,94841.00
2023-03-23T01:32:26.328Z,94839.00
2023-03-23T01:36:26.291Z,94841.00
2023-03-23T01:40:26.291Z,94839.00
2023-03-23T01:44:26.317Z,94839.00
2023-03-23T01:48:26.345Z,94835.00
2023-03-23T01:52:26.434Z,94837.00
2023-03-23T01:56:26.442Z,94835.00
2023-03-23T02:00:26.529Z,94821.00
2023-03-23T02:04:26.478Z,94819.00
2023-03-23T02:08:26.567Z,94823.00
2023-03-23T02:12:26.624Z,94819.00
2023-03-23T02:16:26.714Z,94821.00
2023-03-23T02:20:26.755Z,94821.00
2023-03-23T02:24:26.835Z,94827.00
2023-03-23T02:28:26.889Z,94825.00
2023-03-23T02:32:26.988Z,94823.00
2023-03-23T02:36:27.103Z,94815.00
2023-03-23T02:40:27.192Z,94817.00
2023-03-23T02:44:27.276Z,94817.00
2023-03-23T02:48:27.360Z,94821.00
2023-03-23T02:52:27.386Z,94823.00
2023-03-23T02:56:27.421Z,94827.00
2023-03-23T03:00:27.453Z,94833.00
2023-03-23T03:04:27.500Z,94831.00
2023-03-23T03:08:27.511Z,94829.00
2023-03-23T03:12:27.546Z,94833.00
2023-03-23T03:16:27.594Z,94833.00
2023-03-23T03:20:27.651Z,94837.00
2023-03-23T03:24:27.679Z,94835.00
2023-03-23T03:28:27.742Z,94837.00
2023-03-23T03:32:27.782Z,94839.00
2023-03-23T03:36:27.865Z,94839.00
2023-03-23T03:40:27.893Z,94837.00
2023-03-23T03:44:27.949Z,94835.00
2023-03-23T03:48:28.041Z,94841.00
2023-03-23T03:52:28.160Z,94844.00
2023-03-23T03:56:28.190Z,94846.00
2023-03-23T04:00:28.225Z,94848.00
2023-03-23T04:04:28.267Z,94852.00
2023-03-23T04:08:28.340Z,94854.00
2023-03-23T04:12:28.360Z,94854.00
2023-03-23T04:16:28.374Z,94856.00
2023-03-23T04:20:32.381Z,94858.00
2023-03-23T04:24:56.021Z,94858.00
2023-03-23T04:28:28.332Z,94856.00
2023-03-23T04:32:28.284Z,94864.00
2023-03-23T04:36:28.240Z,94868.00
2023-03-23T04:40:28.227Z,94866.00
2023-03-23T04:44:28.169Z,94866.00
2023-03-23T04:48:28.138Z,94870.00
2023-03-23T04:52:28.095Z,94876.00
2023-03-23T04:56:28.089Z,94882.00
2023-03-23T05:00:28.030Z,94884.00
2023-03-23T05:04:27.982Z,94895.00
2023-03-23T05:08:27.943Z,94899.00
2023-03-23T05:12:27.935Z,94897.00
2023-03-23T05:16:27.871Z,94897.00
2023-03-23T05:20:27.839Z,94895.00
2023-03-23T05:24:27.799Z,94895.00
2023-03-23T05:28:27.785Z,94901.00
2023-03-23T05:32:27.720Z,94899.00
2023-03-23T05:36:27.681Z,94901.00
2023-03-23T05:40:27.645Z,94901.00
2023-03-23T05:44:27.639Z,94911.00
2023-03-23T05:48:27.572Z,94913.00
2023-03-23T05:52:27.534Z,94909.00
2023-03-23T05:56:27.496Z,94917.00
2023-03-23T06:00:27.486Z,94921.00
2023-03-23T06:04:27.429Z,94919.00
2023-03-23T06:08:27.733Z,94911.00
2023-03-23T06:12:27.624Z,94919.00
2023-03-23T06:16:28.248Z,94925.00
2023-03-23T06:20:28.319Z,94921.00
2023-03-23T06:24:28.228Z,94925.00
2023-03-23T06:28:28.231Z,94925.00
2023-03-23T06:32:28.257Z,94923.00
2023-03-23T06:36:28.737Z,94915.00
2023-03-23T06:40:28.741Z,94911.00
2023-03-23T06:44:28.739Z,94915.00
2023-03-23T06:48:28.769Z,94903.00
2023-03-23T06:52:29.742Z,94909.00
2023-03-23T06:56:28.748Z,94909.00
2023-03-23T07:00:28.828Z,94899.00
2023-03-23T07:04:28.411Z,94901.00
2023-03-23T07:08:28.817Z,94884.00
2023-03-23T07:12:28.773Z,94870.00
2023-03-23T07:16:28.750Z,94878.00
2023-03-23T07:20:28.792Z,94878.00
2023-03-23T07:24:28.755Z,94882.00
2023-03-23T07:28:28.756Z,94888.00
2023-03-23T07:32:29.260Z,94897.00
2023-03-23T07:36:29.288Z,94897.00
2023-03-23T07:40:29.776Z,94903.00
2023-03-23T07:44:32.975Z,94899.00
2023-03-23T07:48:29.769Z,94888.00
2023-03-23T07:52:29.791Z,94884.00
2023-03-23T07:56:29.771Z,94884.00
2023-03-23T08:00:29.436Z,94897.00
2023-03-23T08:04:29.781Z,94903.00
2023-03-23T08:08:29.799Z,94905.00
2023-03-23T08:12:29.771Z,94903.00
2023-03-23T08:16:29.771Z,94901.00
2023-03-23T08:20:29.468Z,94903.00
2023-03-23T08:24:29.799Z,94895.00
2023-03-23T08:28:31.174Z,94888.00
2023-03-23T08:32:29.790Z,94899.00
2023-03-23T08:36:29.800Z,94901.00
2023-03-23T08:40:29.812Z,94905.00
2023-03-23T08:44:29.783Z,94907.00
2023-03-23T08:48:29.284Z,94911.00
2023-03-23T08:52:29.793Z,94911.00
2023-03-23T08:56:29.862Z,94907.00
2023-03-23T09:00:33.908Z,94911.00
2023-03-23T09:04:29.810Z,94903.00
2023-03-23T09:08:30.293Z,94901.00
2023-03-23T09:12:30.048Z,94899.00
2023-03-23T09:16:30.297Z,94897.00
2023-03-23T09:20:30.069Z,94897.00
2023-03-23T09:24:30.307Z,94897.00
2023-03-23T09:28:30.366Z,94899.00
2023-03-23T09:32:30.306Z,94905.00
2023-03-23T09:36:30.290Z,94907.00
2023-03-23T09:40:30.350Z,94903.00
2023-03-23T09:44:30.879Z,94886.00
2023-03-23T09:48:30.814Z,94888.00
2023-03-23T09:52:31.317Z,94886.00
2023-03-23T09:56:30.834Z,94886.00
2023-03-23T10:00:31.057Z,94882.00
2023-03-23T10:04:30.823Z,94880.00
2023-03-23T10:08:30.359Z,94880.00
2023-03-23T10:12:30.824Z,94870.00
2023-03-23T10:16:30.364Z,94858.00
2023-03-23T10:20:31.848Z,94854.00
2023-03-23T10:24:30.843Z,94850.00
2023-03-23T10:28:30.923Z,94841.00
2023-03-23T10:32:30.863Z,94831.00
2023-03-23T10:36:30.849Z,94827.00
2023-03-23T10:40:30.853Z,94819.00
2023-03-23T10:44:30.839Z,94815.00
2023-03-23T10:48:30.905Z,94807.00
2023-03-23T10:52:30.844Z,94803.00
2023-03-23T10:56:30.693Z,94797.00
2023-03-23T11:00:31.844Z,94787.00
2023-03-23T11:04:31.375Z,94782.00
2023-03-23T11:08:31.282Z,94784.00
2023-03-23T11:12:31.353Z,94780.00
2023-03-23T11:16:31.352Z,94780.00
2023-03-23T11:20:31.385Z,94787.00
2023-03-23T11:24:31.368Z,94789.00
2023-03-23T11:28:31.358Z,94784.00
2023-03-23T11:32:31.359Z,94784.00
2023-03-23T11:36:31.391Z,94782.00
2023-03-23T11:40:31.382Z,94778.00
2023-03-23T11:44:30.993Z,94776.00
2023-03-23T11:48:31.368Z,94780.00
2023-03-23T11:52:31.392Z,94786.00
2023-03-23T11:56:31.369Z,94782.00
2023-03-23T12:00:30.839Z,94776.00
2023-03-23T12:04:30.915Z,94774.00
2023-03-23T12:08:30.898Z,94764.00
2023-03-23T12:12:30.874Z,94762.00
2023-03-23T12:16:30.872Z,94754.00
2023-03-23T12:20:37.727Z,94744.00
2023-03-23T12:24:30.830Z,94729.00
2023-03-23T12:28:30.883Z,94725.00
2023-03-23T12:32:30.888Z,94721.00
2023-03-23T12:36:30.937Z,94717.00
2023-03-23T12:40:30.913Z,94713.00
2023-03-23T12:44:30.887Z,94713.00
2023-03-23T12:48:30.575Z,94705.00
2023-03-23T12:52:30.893Z,94697.00
2023-03-23T12:56:30.920Z,94690.00
2023-03-23T13:00:32.790Z,94676.00
2023-03-23T13:04:30.899Z,94668.00
2023-03-23T13:08:30.409Z,94666.00
2023-03-23T13:12:30.445Z,94666.00
2023-03-23T13:16:30.323Z,94672.00
2023-03-23T13:20:30.405Z,94674.00
2023-03-23T13:24:30.415Z,94670.00
2023-03-23T13:28:30.447Z,94658.00
2023-03-23T13:32:30.443Z,94660.00
2023-03-23T13:36:30.426Z,94650.00
2023-03-23T13:40:30.439Z,94644.00
2023-03-23T13:44:30.948Z,94639.00
2023-03-23T13:48:30.919Z,94627.00
2023-03-23T13:52:31.172Z,94621.00
2023-03-23T13:56:31.580Z,94617.00
2023-03-23T14:00:31.156Z,94613.00
2023-03-23T14:04:31.437Z,94615.00
2023-03-23T14:08:31.427Z,94619.00
2023-03-23T14:12:31.931Z,94619.00
2023-03-23T14:16:31.768Z,94619.00
2023-03-23T14:20:31.927Z,94615.00
2023-03-23T14:24:32.431Z,94617.00
2023-03-23T14:28:32.431Z,94613.00
2023-03-23T14:32:32.460Z,94615.00
2023-03-23T14:36:32.624Z,94615.00
2023-03-23T14:40:32.933Z,94609.00
2023-03-23T14:44:32.940Z,94609.00
2023-03-23T14:48:33.219Z,94607.00
2023-03-23T14:52:33.437Z,94607.00
2023-03-23T14:56:33.438Z,94605.00
2023-03-23T15:00:33.946Z,94603.00
2023-03-23T15:04:33.970Z,94605.00
2023-03-23T15:08:33.947Z,94603.00
2023-03-23T15:12:34.011Z,94601.00
2023-03-23T15:16:34.446Z,94607.00
2023-03-23T15:20:34.518Z,94601.00
2023-03-23T15:24:34.452Z,94595.00
2023-03-23T15:28:34.077Z,94588.00
2023-03-23T15:32:34.464Z,94597.00
2023-03-23T15:36:34.494Z,94609.00
2023-03-23T15:40:33.970Z,94617.00
2023-03-23T15:44:34.483Z,94617.00
2023-03-23T15:48:34.484Z,94615.00
2023-03-23T15:52:34.519Z,94613.00
2023-03-23T15:56:34.500Z,94607.00
2023-03-23T16:00:34.990Z,94603.00
2023-03-23T16:04:34.978Z,94603.00
2023-03-23T16:08:35.514Z,94603.00
2023-03-23T16:12:35.478Z,94611.00
2023-03-23T16:16:35.400Z,94613.00
2023-03-23T16:20:35.984Z,94619.00
2023-03-23T16:24:35.745Z,94625.00
2023-03-23T16:28:35.986Z,94627.00
2023-03-23T16:36:36.258Z,94627.00
2023-03-23T16:40:36.458Z,94629.00
2023-03-23T16:44:36.598Z,94639.00
2023-03-23T16:48:36.784Z,94644.00
2023-03-23T16:52:45.938Z,94644.00
2023-03-23T16:56:37.106Z,94648.00
2023-03-23T17:00:36.966Z,94654.00
2023-03-23T17:04:36.857Z,94654.00
2023-03-23T17:08:36.821Z,94656.00
2023-03-23T17:12:36.807Z,94652.00
2023-03-23T17:16:36.760Z,94654.00
2023-03-23T17:20:36.742Z,94660.00
2023-03-23T17:24:36.920Z,94662.00
2023-03-23T17:28:37.214Z,94658.00
2023-03-23T17:32:37.345Z,94664.00
2023-03-23T17:36:37.494Z,94664.00
2023-03-23T17:40:37.706Z,94660.00
2023-03-23T17:44:37.909Z,94664.00
2023-03-23T17:48:38.092Z,94670.00
2023-03-23T17:52:38.298Z,94666.00
2023-03-23T17:56:38.516Z,94664.00
2023-03-23T18:00:38.786Z,94664.00
2023-03-23T18:04:38.685Z,94674.00
2023-03-23T18:08:38.771Z,94684.00
2023-03-23T18:12:38.607Z,94686.00
2023-03-23T18:16:38.682Z,94695.00
2023-03-23T18:20:38.527Z,94705.00
2023-03-23T18:24:38.485Z,94709.00
2023-03-23T18:28:38.518Z,94715.00
2023-03-23T18:32:38.836Z,94721.00
2023-03-23T18:36:38.969Z,94725.00
2023-03-23T18:40:39.177Z,94723.00
2023-03-23T18:44:39.377Z,94719.00
2023-03-23T18:48:39.626Z,94715.00
2023-03-23T18:52:39.561Z,94723.00
2023-03-23T18:56:39.593Z,94727.00
2023-03-23T19:00:39.489Z,94735.00
2023-03-23T19:04:39.483Z,94740.00
2023-03-23T19:08:39.421Z,94748.00
2023-03-23T19:12:39.381Z,94742.00
2023-03-23T19:16:39.538Z,94744.00
2023-03-23T19:21:06.283Z,94748.00
2023-03-23T19:24:39.462Z,94744.00
2023-03-23T19:32:38.438Z,94744.00
2023-03-23T19:36:39.773Z,94754.00
2023-03-23T19:40:51.699Z,94758.00
2023-03-23T19:44:39.300Z,94764.00
2023-03-23T19:48:39.975Z,94758.00
2023-03-23T19:52:41.848Z,94762.00
2023-03-23T19:56:39.194Z,94760.00
2023-03-23T20:00:39.149Z,94752.00
2023-03-23T20:04:40.089Z,94758.00
2023-03-23T20:08:39.312Z,94756.00
2023-03-23T20:12:39.019Z,94752.00
2023-03-23T20:16:39.142Z,94764.00
2023-03-23T20:20:39.604Z,94768.00
2023-03-23T20:24:39.419Z,94768.00
2023-03-23T20:28:39.452Z,94770.00
2023-03-23T20:32:39.561Z,94772.00
2023-03-23T20:36:39.548Z,94778.00
2023-03-23T20:40:39.638Z,94778.00
2023-03-23T20:44:39.663Z,94780.00
2023-03-23T20:48:39.740Z,94784.00
2023-03-23T20:52:39.764Z,94784.00
2023-03-23T20:56:39.812Z,94787.00
2023-03-23T21:00:39.740Z,94784.00
2023-03-23T21:04:39.712Z,94789.00
2023-03-23T21:08:39.698Z,94786.00
2023-03-23T21:12:39.688Z,94786.00
2023-03-23T21:16:39.649Z,94784.00
2023-03-23T21:20:39.645Z,94778.00
2023-03-23T21:24:39.620Z,94774.00
2023-03-23T21:28:39.644Z,94770.00
2023-03-23T21:32:39.629Z,94768.00
2023-03-23T21:36:39.627Z,94770.00
2023-03-23T21:40:39.613Z,94778.00
2023-03-23T21:44:39.633Z,94772.00
2023-03-23T21:48:39.621Z,94772.00
2023-03-23T21:52:39.637Z,94772.00
2023-03-23T21:56:39.761Z,94772.00
2023-03-23T22:00:39.665Z,94776.00
2023-03-23T22:04:39.680Z,94780.00
2023-03-23T22:08:39.725Z,94789.00
2023-03-23T22:12:39.743Z,94787.00
2023-03-23T22:16:39.892Z,94786.00
2023-03-23T22:20:39.813Z,94787.00
2023-03-23T22:24:39.854Z,94782.00
2023-03-23T22:28:39.906Z,94782.00
2023-03-23T22:32:40.023Z,94782.00
2023-03-23T22:36:40.006Z,94782.00
2023-03-23T22:40:40.038Z,94784.00
2023-03-23T22:44:40.134Z,94780.00
2023-03-23T22:48:40.155Z,94778.00
2023-03-23T22:52:40.190Z,94776.00
2023-03-23T22:56:40.282Z,94772.00
2023-03-23T23:00:40.325Z,94770.00
2023-03-23T23:04:40.362Z,94764.00
2023-03-23T23:08:40.385Z,94758.00
2023-03-23T23:12:40.441Z,94758.00
2023-03-23T23:16:40.523Z,94754.00
2023-03-23T23:20:40.576Z,94750.00
2023-03-23T23:24:40.594Z,94748.00
2023-03-23T23:28:40.656Z,94744.00
2023-03-23T23:32:40.723Z,94744.00
2023-03-23T23:36:40.778Z,94740.00
2023-03-23T23:40:40.790Z,94746.00
2023-03-23T23:44:40.839Z,94746.00
2023-03-23T23:48:40.892Z,94744.00
2023-03-23T23:52:40.978Z,94739.00
2023-03-23T23:56:41.091Z,94742.00
